sensor_id;sensor_type;location;lat;lon;timestamp;P1;durP1;ratioP1;P2;durP2;ratioP2
16127;SDS011;8168;49.036;7.690;2023-08-31T00:02:07;2.30;;;1.70;;
16127;SDS011;8168;49.036;7.690;2023-08-31T00:04:39;5.80;;;2.30;;
16127;SDS011;8168;49.036;7.690;2023-08-31T00:07:10;2.43;;;1.70;;
16127;SDS011;8168;49.036;7.690;2023-08-31T00:09:40;1.90;;;1.80;;
16127;SDS011;8168;49.036;7.690;2023-08-31T00:12:11;2.40;;;1.93;;
16127;SDS011;8168;49.036;7.690;2023-08-31T00:14:41;2.13;;;1.70;;
16127;SDS011;8168;49.036;7.690;2023-08-31T00:17:12;2.30;;;1.70;;
16127;SDS011;8168;49.036;7.690;2023-08-31T00:19:43;2.33;;;1.77;;
16127;SDS011;8168;49.036;7.690;2023-08-31T00:22:14;2.07;;;1.80;;
16127;SDS011;8168;49.036;7.690;2023-08-31T00:24:45;2.13;;;1.87;;
16127;SDS011;8168;49.036;7.690;2023-08-31T00:27:15;1.80;;;1.30;;
16127;SDS011;8168;49.036;7.690;2023-08-31T00:29:47;2.70;;;1.70;;
16127;SDS011;8168;49.036;7.690;2023-08-31T00:32:20;2.70;;;1.90;;
16127;SDS011;8168;49.036;7.690;2023-08-31T00:34:52;2.23;;;1.83;;
16127;SDS011;8168;49.036;7.690;2023-08-31T00:37:22;3.37;;;2.03;;
16127;SDS011;8168;49.036;7.690;2023-08-31T00:39:53;2.00;;;1.80;;
16127;SDS011;8168;49.036;7.690;2023-08-31T00:42:25;3.20;;;1.83;;
16127;SDS011;8168;49.036;7.690;2023-08-31T00:44:56;3.57;;;1.87;;
16127;SDS011;8168;49.036;7.690;2023-08-31T00:47:27;1.77;;;1.60;;
16127;SDS011;8168;49.036;7.690;2023-08-31T00:49:57;2.73;;;1.93;;
16127;SDS011;8168;49.036;7.690;2023-08-31T00:52:28;1.77;;;1.57;;
16127;SDS011;8168;49.036;7.690;2023-08-31T00:54:59;6.07;;;1.93;;
16127;SDS011;8168;49.036;7.690;2023-08-31T00:57:32;2.03;;;1.90;;
16127;SDS011;8168;49.036;7.690;2023-08-31T01:00:03;1.70;;;1.60;;
16127;SDS011;8168;49.036;7.690;2023-08-31T01:05:37;4.90;;;2.00;;
16127;SDS011;8168;49.036;7.690;2023-08-31T01:08:32;2.27;;;2.07;;
16127;SDS011;8168;49.036;7.690;2023-08-31T01:11:34;3.70;;;1.97;;
16127;SDS011;8168;49.036;7.690;2023-08-31T01:14:09;2.43;;;1.80;;
16127;SDS011;8168;49.036;7.690;2023-08-31T01:16:47;2.17;;;1.80;;
16127;SDS011;8168;49.036;7.690;2023-08-31T01:22:07;3.17;;;2.27;;
16127;SDS011;8168;49.036;7.690;2023-08-31T01:24:43;3.17;;;2.60;;
16127;SDS011;8168;49.036;7.690;2023-08-31T01:27:15;3.33;;;2.63;;
16127;SDS011;8168;49.036;7.690;2023-08-31T01:29:46;3.40;;;2.53;;
16127;SDS011;8168;49.036;7.690;2023-08-31T01:32:16;3.87;;;2.70;;
16127;SDS011;8168;49.036;7.690;2023-08-31T01:34:47;4.73;;;3.30;;
16127;SDS011;8168;49.036;7.690;2023-08-31T01:37:22;4.10;;;2.40;;
16127;SDS011;8168;49.036;7.690;2023-08-31T01:40:01;4.40;;;3.10;;
16127;SDS011;8168;49.036;7.690;2023-08-31T01:42:36;3.50;;;2.83;;
16127;SDS011;8168;49.036;7.690;2023-08-31T01:45:08;5.63;;;4.93;;
16127;SDS011;8168;49.036;7.690;2023-08-31T01:47:41;5.03;;;3.43;;
16127;SDS011;8168;49.036;7.690;2023-08-31T01:50:12;5.30;;;2.90;;
16127;SDS011;8168;49.036;7.690;2023-08-31T01:52:43;5.23;;;3.00;;
16127;SDS011;8168;49.036;7.690;2023-08-31T01:55:13;3.00;;;2.70;;
16127;SDS011;8168;49.036;7.690;2023-08-31T01:57:45;2.83;;;2.63;;
16127;SDS011;8168;49.036;7.690;2023-08-31T02:00:17;3.37;;;2.63;;
16127;SDS011;8168;49.036;7.690;2023-08-31T02:02:48;4.00;;;3.20;;
16127;SDS011;8168;49.036;7.690;2023-08-31T02:05:19;4.40;;;2.80;;
16127;SDS011;8168;49.036;7.690;2023-08-31T02:07:49;5.33;;;2.90;;
16127;SDS011;8168;49.036;7.690;2023-08-31T02:10:20;4.43;;;3.00;;
16127;SDS011;8168;49.036;7.690;2023-08-31T02:12:50;3.33;;;2.90;;
16127;SDS011;8168;49.036;7.690;2023-08-31T02:15:21;3.53;;;2.47;;
16127;SDS011;8168;49.036;7.690;2023-08-31T02:17:53;7.83;;;2.80;;
16127;SDS011;8168;49.036;7.690;2023-08-31T02:20:24;6.97;;;3.03;;
16127;SDS011;8168;49.036;7.690;2023-08-31T02:22:56;2.50;;;2.30;;
16127;SDS011;8168;49.036;7.690;2023-08-31T02:25:27;3.17;;;2.90;;
16127;SDS011;8168;49.036;7.690;2023-08-31T02:28:00;4.40;;;2.60;;
16127;SDS011;8168;49.036;7.690;2023-08-31T02:30:31;4.03;;;2.93;;
16127;SDS011;8168;49.036;7.690;2023-08-31T02:33:02;4.10;;;2.87;;
16127;SDS011;8168;49.036;7.690;2023-08-31T02:35:32;3.33;;;2.67;;
16127;SDS011;8168;49.036;7.690;2023-08-31T02:38:03;3.83;;;3.10;;
16127;SDS011;8168;49.036;7.690;2023-08-31T02:40:34;3.73;;;2.83;;
16127;SDS011;8168;49.036;7.690;2023-08-31T02:43:04;4.07;;;3.00;;
16127;SDS011;8168;49.036;7.690;2023-08-31T02:45:35;6.97;;;3.27;;
16127;SDS011;8168;49.036;7.690;2023-08-31T02:48:09;6.53;;;3.30;;
16127;SDS011;8168;49.036;7.690;2023-08-31T02:50:40;4.93;;;3.17;;
16127;SDS011;8168;49.036;7.690;2023-08-31T02:53:11;4.57;;;3.27;;
16127;SDS011;8168;49.036;7.690;2023-08-31T02:55:42;4.97;;;2.90;;
16127;SDS011;8168;49.036;7.690;2023-08-31T02:58:12;3.30;;;3.00;;
16127;SDS011;8168;49.036;7.690;2023-08-31T03:00:43;6.07;;;2.87;;
16127;SDS011;8168;49.036;7.690;2023-08-31T03:03:16;3.50;;;2.80;;
16127;SDS011;8168;49.036;7.690;2023-08-31T03:05:47;3.83;;;2.63;;
16127;SDS011;8168;49.036;7.690;2023-08-31T03:08:17;4.00;;;2.70;;
16127;SDS011;8168;49.036;7.690;2023-08-31T03:10:48;3.30;;;2.67;;
16127;SDS011;8168;49.036;7.690;2023-08-31T03:13:19;5.40;;;3.50;;
16127;SDS011;8168;49.036;7.690;2023-08-31T03:15:49;3.23;;;2.93;;
16127;SDS011;8168;49.036;7.690;2023-08-31T03:18:20;4.17;;;2.77;;
16127;SDS011;8168;49.036;7.690;2023-08-31T03:20:51;5.13;;;3.43;;
16127;SDS011;8168;49.036;7.690;2023-08-31T03:23:21;5.90;;;2.93;;
16127;SDS011;8168;49.036;7.690;2023-08-31T03:25:52;3.00;;;2.57;;
16127;SDS011;8168;49.036;7.690;2023-08-31T03:28:23;3.00;;;2.70;;
16127;SDS011;8168;49.036;7.690;2023-08-31T03:30:54;4.77;;;2.70;;
16127;SDS011;8168;49.036;7.690;2023-08-31T03:33:25;7.53;;;3.10;;
16127;SDS011;8168;49.036;7.690;2023-08-31T03:36:00;2.80;;;2.47;;
16127;SDS011;8168;49.036;7.690;2023-08-31T03:38:34;2.83;;;2.57;;
16127;SDS011;8168;49.036;7.690;2023-08-31T03:41:07;4.13;;;2.67;;
16127;SDS011;8168;49.036;7.690;2023-08-31T03:43:38;3.73;;;2.77;;
16127;SDS011;8168;49.036;7.690;2023-08-31T03:46:08;4.20;;;2.83;;
16127;SDS011;8168;49.036;7.690;2023-08-31T03:48:39;4.10;;;2.57;;
16127;SDS011;8168;49.036;7.690;2023-08-31T03:51:09;4.27;;;2.90;;
16127;SDS011;8168;49.036;7.690;2023-08-31T03:53:40;7.27;;;2.60;;
16127;SDS011;8168;49.036;7.690;2023-08-31T03:56:11;5.47;;;2.87;;
16127;SDS011;8168;49.036;7.690;2023-08-31T03:58:41;3.90;;;2.40;;
16127;SDS011;8168;49.036;7.690;2023-08-31T04:01:12;3.00;;;2.60;;
16127;SDS011;8168;49.036;7.690;2023-08-31T04:03:44;3.67;;;2.90;;
16127;SDS011;8168;49.036;7.690;2023-08-31T04:06:14;5.43;;;2.53;;
16127;SDS011;8168;49.036;7.690;2023-08-31T04:08:46;4.10;;;2.40;;
16127;SDS011;8168;49.036;7.690;2023-08-31T04:11:16;3.83;;;2.30;;
16127;SDS011;8168;49.036;7.690;2023-08-31T04:13:47;3.17;;;2.60;;
16127;SDS011;8168;49.036;7.690;2023-08-31T04:16:17;3.13;;;2.43;;
16127;SDS011;8168;49.036;7.690;2023-08-31T04:18:48;4.13;;;2.10;;
16127;SDS011;8168;49.036;7.690;2023-08-31T04:21:21;5.67;;;1.90;;
16127;SDS011;8168;49.036;7.690;2023-08-31T04:23:52;3.67;;;2.70;;
16127;SDS011;8168;49.036;7.690;2023-08-31T04:26:25;2.73;;;2.30;;
16127;SDS011;8168;49.036;7.690;2023-08-31T04:28:56;2.50;;;2.27;;
16127;SDS011;8168;49.036;7.690;2023-08-31T04:31:27;6.43;;;2.60;;
16127;SDS011;8168;49.036;7.690;2023-08-31T04:33:57;2.43;;;2.17;;
16127;SDS011;8168;49.036;7.690;2023-08-31T04:36:28;4.37;;;2.30;;
16127;SDS011;8168;49.036;7.690;2023-08-31T04:38:59;3.10;;;2.47;;
16127;SDS011;8168;49.036;7.690;2023-08-31T04:41:29;2.90;;;2.60;;
16127;SDS011;8168;49.036;7.690;2023-08-31T04:44:00;3.03;;;2.70;;
16127;SDS011;8168;49.036;7.690;2023-08-31T04:46:31;4.20;;;2.30;;
16127;SDS011;8168;49.036;7.690;2023-08-31T04:49:01;3.13;;;2.50;;
16127;SDS011;8168;49.036;7.690;2023-08-31T04:51:33;2.73;;;2.30;;
16127;SDS011;8168;49.036;7.690;2023-08-31T04:54:07;3.97;;;2.50;;
16127;SDS011;8168;49.036;7.690;2023-08-31T04:56:38;2.30;;;2.20;;
16127;SDS011;8168;49.036;7.690;2023-08-31T04:59:08;3.10;;;2.30;;
16127;SDS011;8168;49.036;7.690;2023-08-31T05:01:39;4.40;;;2.27;;
16127;SDS011;8168;49.036;7.690;2023-08-31T05:04:09;2.80;;;2.10;;
16127;SDS011;8168;49.036;7.690;2023-08-31T05:06:40;2.10;;;1.83;;
16127;SDS011;8168;49.036;7.690;2023-08-31T05:09:11;3.80;;;2.20;;
16127;SDS011;8168;49.036;7.690;2023-08-31T05:11:41;4.70;;;2.40;;
16127;SDS011;8168;49.036;7.690;2023-08-31T05:14:12;3.50;;;2.20;;
16127;SDS011;8168;49.036;7.690;2023-08-31T05:16:42;2.60;;;2.40;;
16127;SDS011;8168;49.036;7.690;2023-08-31T05:19:13;2.77;;;2.20;;
16127;SDS011;8168;49.036;7.690;2023-08-31T05:21:43;5.33;;;2.47;;
16127;SDS011;8168;49.036;7.690;2023-08-31T05:24:14;1.73;;;1.63;;
16127;SDS011;8168;49.036;7.690;2023-08-31T05:26:45;4.63;;;1.70;;
16127;SDS011;8168;49.036;7.690;2023-08-31T05:29:16;2.03;;;1.83;;
16127;SDS011;8168;49.036;7.690;2023-08-31T05:31:47;2.53;;;1.90;;
16127;SDS011;8168;49.036;7.690;2023-08-31T05:34:20;1.77;;;1.67;;
16127;SDS011;8168;49.036;7.690;2023-08-31T05:36:51;6.73;;;2.00;;
16127;SDS011;8168;49.036;7.690;2023-08-31T05:39:22;2.57;;;1.77;;
16127;SDS011;8168;49.036;7.690;2023-08-31T05:41:52;4.60;;;1.90;;
16127;SDS011;8168;49.036;7.690;2023-08-31T05:44:23;1.77;;;1.67;;
16127;SDS011;8168;49.036;7.690;2023-08-31T05:46:54;3.50;;;1.80;;
16127;SDS011;8168;49.036;7.690;2023-08-31T05:49:24;2.00;;;1.80;;
16127;SDS011;8168;49.036;7.690;2023-08-31T05:51:55;2.53;;;1.87;;
16127;SDS011;8168;49.036;7.690;2023-08-31T05:54:25;2.73;;;1.93;;
16127;SDS011;8168;49.036;7.690;2023-08-31T05:56:57;2.03;;;1.83;;
16127;SDS011;8168;49.036;7.690;2023-08-31T05:59:27;2.90;;;1.77;;
16127;SDS011;8168;49.036;7.690;2023-08-31T06:01:58;4.93;;;1.90;;
16127;SDS011;8168;49.036;7.690;2023-08-31T06:04:29;4.73;;;2.17;;
16127;SDS011;8168;49.036;7.690;2023-08-31T06:06:59;1.90;;;1.60;;
16127;SDS011;8168;49.036;7.690;2023-08-31T06:09:30;2.00;;;1.80;;
16127;SDS011;8168;49.036;7.690;2023-08-31T06:12:01;3.83;;;2.40;;
16127;SDS011;8168;49.036;7.690;2023-08-31T06:14:33;3.40;;;2.50;;
16127;SDS011;8168;49.036;7.690;2023-08-31T06:17:03;3.30;;;2.07;;
16127;SDS011;8168;49.036;7.690;2023-08-31T06:19:34;3.30;;;2.10;;
16127;SDS011;8168;49.036;7.690;2023-08-31T06:22:06;3.80;;;2.63;;
16127;SDS011;8168;49.036;7.690;2023-08-31T06:24:37;4.60;;;2.70;;
16127;SDS011;8168;49.036;7.690;2023-08-31T06:27:07;5.17;;;3.27;;
16127;SDS011;8168;49.036;7.690;2023-08-31T06:29:38;5.03;;;3.13;;
16127;SDS011;8168;49.036;7.690;2023-08-31T06:32:09;4.67;;;3.10;;
16127;SDS011;8168;49.036;7.690;2023-08-31T06:34:39;4.90;;;3.07;;
16127;SDS011;8168;49.036;7.690;2023-08-31T06:37:10;3.63;;;2.83;;
16127;SDS011;8168;49.036;7.690;2023-08-31T06:39:40;5.03;;;3.10;;
16127;SDS011;8168;49.036;7.690;2023-08-31T06:42:11;5.43;;;3.03;;
16127;SDS011;8168;49.036;7.690;2023-08-31T06:44:42;6.13;;;2.90;;
16127;SDS011;8168;49.036;7.690;2023-08-31T06:47:13;6.20;;;2.60;;
16127;SDS011;8168;49.036;7.690;2023-08-31T06:49:46;8.27;;;3.60;;
16127;SDS011;8168;49.036;7.690;2023-08-31T06:52:17;3.80;;;2.67;;
16127;SDS011;8168;49.036;7.690;2023-08-31T06:54:47;6.63;;;3.17;;
16127;SDS011;8168;49.036;7.690;2023-08-31T06:57:18;3.50;;;2.60;;
16127;SDS011;8168;49.036;7.690;2023-08-31T06:59:48;3.70;;;2.60;;
16127;SDS011;8168;49.036;7.690;2023-08-31T07:02:19;4.53;;;2.40;;
16127;SDS011;8168;49.036;7.690;2023-08-31T07:04:52;4.13;;;2.63;;
16127;SDS011;8168;49.036;7.690;2023-08-31T07:07:22;7.37;;;3.17;;
16127;SDS011;8168;49.036;7.690;2023-08-31T07:09:53;3.73;;;2.67;;
16127;SDS011;8168;49.036;7.690;2023-08-31T07:12:24;3.20;;;2.40;;
16127;SDS011;8168;49.036;7.690;2023-08-31T07:14:55;3.13;;;2.70;;
16127;SDS011;8168;49.036;7.690;2023-08-31T07:17:25;4.30;;;2.87;;
16127;SDS011;8168;49.036;7.690;2023-08-31T07:19:56;6.10;;;2.70;;
16127;SDS011;8168;49.036;7.690;2023-08-31T07:22:27;6.70;;;2.80;;
16127;SDS011;8168;49.036;7.690;2023-08-31T07:24:57;3.10;;;2.50;;
16127;SDS011;8168;49.036;7.690;2023-08-31T07:27:28;3.60;;;2.40;;
16127;SDS011;8168;49.036;7.690;2023-08-31T07:29:59;5.13;;;2.73;;
16127;SDS011;8168;49.036;7.690;2023-08-31T07:32:29;3.27;;;2.33;;
16127;SDS011;8168;49.036;7.690;2023-08-31T07:35:00;2.83;;;2.33;;
16127;SDS011;8168;49.036;7.690;2023-08-31T07:37:30;3.13;;;2.47;;
16127;SDS011;8168;49.036;7.690;2023-08-31T07:40:01;4.10;;;2.53;;
16127;SDS011;8168;49.036;7.690;2023-08-31T07:42:31;3.93;;;2.57;;
16127;SDS011;8168;49.036;7.690;2023-08-31T07:45:02;9.10;;;2.97;;
16127;SDS011;8168;49.036;7.690;2023-08-31T07:47:35;4.10;;;2.20;;
16127;SDS011;8168;49.036;7.690;2023-08-31T07:50:06;2.70;;;2.40;;
16127;SDS011;8168;49.036;7.690;2023-08-31T07:52:37;5.57;;;2.67;;
16127;SDS011;8168;49.036;7.690;2023-08-31T07:55:08;4.03;;;2.33;;
16127;SDS011;8168;49.036;7.690;2023-08-31T07:57:38;4.90;;;2.40;;
16127;SDS011;8168;49.036;7.690;2023-08-31T08:00:09;3.97;;;2.70;;
16127;SDS011;8168;49.036;7.690;2023-08-31T08:02:40;3.30;;;2.30;;
16127;SDS011;8168;49.036;7.690;2023-08-31T08:05:11;2.73;;;2.40;;
16127;SDS011;8168;49.036;7.690;2023-08-31T08:07:41;3.10;;;2.53;;
16127;SDS011;8168;49.036;7.690;2023-08-31T08:10:12;3.40;;;2.23;;
16127;SDS011;8168;49.036;7.690;2023-08-31T08:12:44;4.23;;;2.50;;
16127;SDS011;8168;49.036;7.690;2023-08-31T08:15:16;4.97;;;2.77;;
16127;SDS011;8168;49.036;7.690;2023-08-31T08:17:46;4.23;;;2.10;;
16127;SDS011;8168;49.036;7.690;2023-08-31T08:20:18;3.07;;;2.73;;
16127;SDS011;8168;49.036;7.690;2023-08-31T08:22:48;5.70;;;2.73;;
16127;SDS011;8168;49.036;7.690;2023-08-31T08:25:22;6.37;;;2.83;;
16127;SDS011;8168;49.036;7.690;2023-08-31T08:27:52;5.17;;;2.43;;
16127;SDS011;8168;49.036;7.690;2023-08-31T08:30:23;2.57;;;2.23;;
16127;SDS011;8168;49.036;7.690;2023-08-31T08:32:54;2.77;;;2.30;;
16127;SDS011;8168;49.036;7.690;2023-08-31T08:35:25;9.30;;;2.77;;
16127;SDS011;8168;49.036;7.690;2023-08-31T08:37:55;2.77;;;1.83;;
16127;SDS011;8168;49.036;7.690;2023-08-31T08:40:26;3.67;;;2.17;;
16127;SDS011;8168;49.036;7.690;2023-08-31T08:42:56;4.33;;;2.40;;
16127;SDS011;8168;49.036;7.690;2023-08-31T08:45:37;5.67;;;2.40;;
16127;SDS011;8168;49.036;7.690;2023-08-31T08:48:09;3.47;;;2.47;;
16127;SDS011;8168;49.036;7.690;2023-08-31T08:50:40;5.27;;;2.50;;
16127;SDS011;8168;49.036;7.690;2023-08-31T08:53:11;4.73;;;2.13;;
16127;SDS011;8168;49.036;7.690;2023-08-31T08:55:43;3.30;;;2.20;;
16127;SDS011;8168;49.036;7.690;2023-08-31T08:58:14;2.97;;;2.20;;
16127;SDS011;8168;49.036;7.690;2023-08-31T09:00:44;2.83;;;1.90;;
16127;SDS011;8168;49.036;7.690;2023-08-31T09:03:17;4.97;;;2.10;;
16127;SDS011;8168;49.036;7.690;2023-08-31T09:05:48;4.83;;;1.90;;
16127;SDS011;8168;49.036;7.690;2023-08-31T09:08:28;6.17;;;1.90;;
16127;SDS011;8168;49.036;7.690;2023-08-31T09:10:59;4.57;;;1.83;;
16127;SDS011;8168;49.036;7.690;2023-08-31T09:13:30;2.80;;;1.87;;
16127;SDS011;8168;49.036;7.690;2023-08-31T09:16:00;2.83;;;1.60;;
16127;SDS011;8168;49.036;7.690;2023-08-31T09:18:31;3.50;;;1.70;;
16127;SDS011;8168;49.036;7.690;2023-08-31T09:21:05;2.40;;;1.50;;
16127;SDS011;8168;49.036;7.690;2023-08-31T09:23:36;4.63;;;1.70;;
16127;SDS011;8168;49.036;7.690;2023-08-31T09:26:06;1.97;;;1.67;;
16127;SDS011;8168;49.036;7.690;2023-08-31T09:28:40;3.07;;;1.70;;
16127;SDS011;8168;49.036;7.690;2023-08-31T09:31:11;3.67;;;1.77;;
16127;SDS011;8168;49.036;7.690;2023-08-31T09:33:51;3.70;;;1.80;;
16127;SDS011;8168;49.036;7.690;2023-08-31T09:36:22;6.27;;;2.00;;
16127;SDS011;8168;49.036;7.690;2023-08-31T09:38:56;2.73;;;1.87;;
16127;SDS011;8168;49.036;7.690;2023-08-31T09:41:28;4.27;;;1.80;;
16127;SDS011;8168;49.036;7.690;2023-08-31T09:44:14;2.23;;;2.00;;
16127;SDS011;8168;49.036;7.690;2023-08-31T09:46:48;4.50;;;1.80;;
16127;SDS011;8168;49.036;7.690;2023-08-31T09:49:19;3.30;;;1.70;;
16127;SDS011;8168;49.036;7.690;2023-08-31T09:51:51;4.73;;;1.87;;
16127;SDS011;8168;49.036;7.690;2023-08-31T09:54:22;2.77;;;1.77;;
16127;SDS011;8168;49.036;7.690;2023-08-31T09:56:56;2.13;;;1.47;;
16127;SDS011;8168;49.036;7.690;2023-08-31T09:59:30;2.73;;;1.40;;
16127;SDS011;8168;49.036;7.690;2023-08-31T10:02:01;3.00;;;1.60;;
16127;SDS011;8168;49.036;7.690;2023-08-31T10:04:34;3.30;;;1.73;;
16127;SDS011;8168;49.036;7.690;2023-08-31T10:07:07;2.43;;;1.50;;
16127;SDS011;8168;49.036;7.690;2023-08-31T10:09:40;4.20;;;1.77;;
16127;SDS011;8168;49.036;7.690;2023-08-31T10:12:11;2.73;;;1.60;;
16127;SDS011;8168;49.036;7.690;2023-08-31T10:14:43;4.83;;;1.50;;
16127;SDS011;8168;49.036;7.690;2023-08-31T10:17:16;2.93;;;1.90;;
16127;SDS011;8168;49.036;7.690;2023-08-31T10:19:47;3.60;;;1.50;;
16127;SDS011;8168;49.036;7.690;2023-08-31T10:22:18;3.30;;;1.57;;
16127;SDS011;8168;49.036;7.690;2023-08-31T10:27:35;3.87;;;1.57;;
16127;SDS011;8168;49.036;7.690;2023-08-31T10:32:45;3.37;;;1.67;;
16127;SDS011;8168;49.036;7.690;2023-08-31T10:35:16;1.60;;;1.40;;
16127;SDS011;8168;49.036;7.690;2023-08-31T10:37:48;2.90;;;1.80;;
16127;SDS011;8168;49.036;7.690;2023-08-31T10:40:18;2.43;;;1.23;;
16127;SDS011;8168;49.036;7.690;2023-08-31T10:42:50;2.67;;;1.70;;
16127;SDS011;8168;49.036;7.690;2023-08-31T10:45:46;4.63;;;1.73;;
16127;SDS011;8168;49.036;7.690;2023-08-31T10:48:19;2.87;;;1.77;;
16127;SDS011;8168;49.036;7.690;2023-08-31T10:50:50;2.47;;;1.30;;
16127;SDS011;8168;49.036;7.690;2023-08-31T10:53:27;3.63;;;1.40;;
16127;SDS011;8168;49.036;7.690;2023-08-31T10:55:58;2.87;;;1.73;;
16127;SDS011;8168;49.036;7.690;2023-08-31T10:58:31;5.37;;;1.53;;
16127;SDS011;8168;49.036;7.690;2023-08-31T11:01:03;4.07;;;2.43;;
16127;SDS011;8168;49.036;7.690;2023-08-31T11:03:52;3.90;;;1.50;;
16127;SDS011;8168;49.036;7.690;2023-08-31T11:06:27;3.57;;;1.57;;
16127;SDS011;8168;49.036;7.690;2023-08-31T11:09:00;2.77;;;1.60;;
16127;SDS011;8168;49.036;7.690;2023-08-31T11:11:39;3.03;;;1.73;;
16127;SDS011;8168;49.036;7.690;2023-08-31T11:14:10;6.07;;;1.83;;
16127;SDS011;8168;49.036;7.690;2023-08-31T11:16:41;3.13;;;1.50;;
16127;SDS011;8168;49.036;7.690;2023-08-31T11:19:13;3.60;;;1.70;;
16127;SDS011;8168;49.036;7.690;2023-08-31T11:21:43;2.10;;;1.40;;
16127;SDS011;8168;49.036;7.690;2023-08-31T11:24:15;6.30;;;2.03;;
16127;SDS011;8168;49.036;7.690;2023-08-31T11:26:50;7.17;;;1.80;;
16127;SDS011;8168;49.036;7.690;2023-08-31T11:29:21;3.33;;;1.50;;
16127;SDS011;8168;49.036;7.690;2023-08-31T11:31:52;4.60;;;1.70;;
16127;SDS011;8168;49.036;7.690;2023-08-31T11:34:22;2.00;;;1.50;;
16127;SDS011;8168;49.036;7.690;2023-08-31T11:36:53;4.17;;;1.77;;
16127;SDS011;8168;49.036;7.690;2023-08-31T11:39:24;3.87;;;2.00;;
16127;SDS011;8168;49.036;7.690;2023-08-31T11:41:54;2.47;;;1.70;;
16127;SDS011;8168;49.036;7.690;2023-08-31T11:44:26;2.07;;;1.70;;
16127;SDS011;8168;49.036;7.690;2023-08-31T11:46:58;4.40;;;1.50;;
16127;SDS011;8168;49.036;7.690;2023-08-31T11:49:28;2.17;;;1.40;;
16127;SDS011;8168;49.036;7.690;2023-08-31T11:51:59;2.87;;;1.50;;
16127;SDS011;8168;49.036;7.690;2023-08-31T11:54:30;4.23;;;1.60;;
16127;SDS011;8168;49.036;7.690;2023-08-31T11:57:01;2.07;;;1.67;;
16127;SDS011;8168;49.036;7.690;2023-08-31T11:59:34;2.20;;;1.53;;
16127;SDS011;8168;49.036;7.690;2023-08-31T12:02:06;2.30;;;1.67;;
16127;SDS011;8168;49.036;7.690;2023-08-31T12:04:43;3.10;;;2.03;;
16127;SDS011;8168;49.036;7.690;2023-08-31T12:07:18;3.23;;;1.70;;
16127;SDS011;8168;49.036;7.690;2023-08-31T12:09:49;2.50;;;1.50;;
16127;SDS011;8168;49.036;7.690;2023-08-31T12:12:22;3.73;;;1.90;;
16127;SDS011;8168;49.036;7.690;2023-08-31T12:14:54;2.63;;;1.40;;
16127;SDS011;8168;49.036;7.690;2023-08-31T12:17:24;4.50;;;1.67;;
16127;SDS011;8168;49.036;7.690;2023-08-31T12:20:02;3.47;;;1.90;;
16127;SDS011;8168;49.036;7.690;2023-08-31T12:22:36;3.23;;;1.73;;
16127;SDS011;8168;49.036;7.690;2023-08-31T12:25:07;2.07;;;1.43;;
16127;SDS011;8168;49.036;7.690;2023-08-31T12:27:38;4.17;;;1.60;;
16127;SDS011;8168;49.036;7.690;2023-08-31T12:30:09;3.80;;;1.73;;
16127;SDS011;8168;49.036;7.690;2023-08-31T12:32:40;3.07;;;1.50;;
16127;SDS011;8168;49.036;7.690;2023-08-31T12:35:10;3.10;;;1.70;;
16127;SDS011;8168;49.036;7.690;2023-08-31T12:37:41;2.33;;;1.60;;
16127;SDS011;8168;49.036;7.690;2023-08-31T12:40:12;6.77;;;1.87;;
16127;SDS011;8168;49.036;7.690;2023-08-31T12:42:43;3.00;;;1.53;;
16127;SDS011;8168;49.036;7.690;2023-08-31T12:45:14;4.70;;;1.60;;
16127;SDS011;8168;49.036;7.690;2023-08-31T12:47:44;3.33;;;1.80;;
16127;SDS011;8168;49.036;7.690;2023-08-31T12:50:15;2.30;;;1.40;;
16127;SDS011;8168;49.036;7.690;2023-08-31T12:52:46;3.03;;;1.67;;
16127;SDS011;8168;49.036;7.690;2023-08-31T12:55:17;3.60;;;1.83;;
16127;SDS011;8168;49.036;7.690;2023-08-31T12:57:47;3.27;;;1.90;;
16127;SDS011;8168;49.036;7.690;2023-08-31T13:00:18;2.47;;;1.50;;
16127;SDS011;8168;49.036;7.690;2023-08-31T13:02:49;3.50;;;1.80;;
16127;SDS011;8168;49.036;7.690;2023-08-31T13:05:21;2.73;;;1.97;;
16127;SDS011;8168;49.036;7.690;2023-08-31T13:07:51;2.60;;;1.73;;
16127;SDS011;8168;49.036;7.690;2023-08-31T13:10:22;3.00;;;1.50;;
16127;SDS011;8168;49.036;7.690;2023-08-31T13:12:53;3.10;;;1.80;;
16127;SDS011;8168;49.036;7.690;2023-08-31T13:15:24;4.37;;;1.70;;
16127;SDS011;8168;49.036;7.690;2023-08-31T13:17:55;2.77;;;1.67;;
16127;SDS011;8168;49.036;7.690;2023-08-31T13:20:26;2.33;;;1.77;;
16127;SDS011;8168;49.036;7.690;2023-08-31T13:22:57;1.90;;;1.80;;
16127;SDS011;8168;49.036;7.690;2023-08-31T13:25:27;3.33;;;1.67;;
16127;SDS011;8168;49.036;7.690;2023-08-31T13:27:58;3.97;;;2.20;;
16127;SDS011;8168;49.036;7.690;2023-08-31T13:30:29;3.80;;;1.90;;
16127;SDS011;8168;49.036;7.690;2023-08-31T13:32:59;3.60;;;2.00;;
16127;SDS011;8168;49.036;7.690;2023-08-31T13:35:30;4.57;;;1.70;;
16127;SDS011;8168;49.036;7.690;2023-08-31T13:38:01;6.60;;;2.03;;
16127;SDS011;8168;49.036;7.690;2023-08-31T13:40:33;6.63;;;2.30;;
16127;SDS011;8168;49.036;7.690;2023-08-31T13:43:05;2.83;;;1.43;;
16127;SDS011;8168;49.036;7.690;2023-08-31T13:45:36;4.53;;;2.50;;
16127;SDS011;8168;49.036;7.690;2023-08-31T13:48:06;4.70;;;1.70;;
16127;SDS011;8168;49.036;7.690;2023-08-31T13:50:38;6.47;;;2.00;;
16127;SDS011;8168;49.036;7.690;2023-08-31T13:53:09;3.63;;;1.80;;
16127;SDS011;8168;49.036;7.690;2023-08-31T13:55:39;4.77;;;1.80;;
16127;SDS011;8168;49.036;7.690;2023-08-31T13:58:10;4.80;;;1.80;;
16127;SDS011;8168;49.036;7.690;2023-08-31T14:00:41;3.80;;;2.03;;
16127;SDS011;8168;49.036;7.690;2023-08-31T14:03:12;2.77;;;1.87;;
16127;SDS011;8168;49.036;7.690;2023-08-31T14:05:43;2.57;;;1.90;;
16127;SDS011;8168;49.036;7.690;2023-08-31T14:08:17;3.23;;;1.60;;
16127;SDS011;8168;49.036;7.690;2023-08-31T14:10:48;3.80;;;2.20;;
16127;SDS011;8168;49.036;7.690;2023-08-31T14:13:19;5.90;;;1.90;;
16127;SDS011;8168;49.036;7.690;2023-08-31T14:15:49;8.50;;;2.20;;
16127;SDS011;8168;49.036;7.690;2023-08-31T14:18:20;4.47;;;1.80;;
16127;SDS011;8168;49.036;7.690;2023-08-31T14:20:51;2.13;;;1.70;;
16127;SDS011;8168;49.036;7.690;2023-08-31T14:23:22;3.67;;;1.97;;
16127;SDS011;8168;49.036;7.690;2023-08-31T14:25:52;6.17;;;1.90;;
16127;SDS011;8168;49.036;7.690;2023-08-31T14:28:23;3.23;;;1.60;;
16127;SDS011;8168;49.036;7.690;2023-08-31T14:30:54;5.60;;;1.70;;
16127;SDS011;8168;49.036;7.690;2023-08-31T14:33:24;6.03;;;1.83;;
16127;SDS011;8168;49.036;7.690;2023-08-31T14:35:55;3.90;;;1.60;;
16127;SDS011;8168;49.036;7.690;2023-08-31T14:38:25;3.70;;;1.90;;
16127;SDS011;8168;49.036;7.690;2023-08-31T14:40:57;3.80;;;1.50;;
16127;SDS011;8168;49.036;7.690;2023-08-31T14:43:28;2.17;;;1.50;;
16127;SDS011;8168;49.036;7.690;2023-08-31T14:45:59;4.57;;;1.70;;
16127;SDS011;8168;49.036;7.690;2023-08-31T14:48:33;3.57;;;1.97;;
16127;SDS011;8168;49.036;7.690;2023-08-31T14:51:04;5.00;;;1.90;;
16127;SDS011;8168;49.036;7.690;2023-08-31T14:53:35;2.47;;;1.63;;
16127;SDS011;8168;49.036;7.690;2023-08-31T14:56:05;2.83;;;1.70;;
16127;SDS011;8168;49.036;7.690;2023-08-31T14:58:36;4.80;;;2.00;;
16127;SDS011;8168;49.036;7.690;2023-08-31T15:01:07;2.80;;;1.73;;
16127;SDS011;8168;49.036;7.690;2023-08-31T15:03:38;4.87;;;1.83;;
16127;SDS011;8168;49.036;7.690;2023-08-31T15:06:08;2.63;;;1.53;;
16127;SDS011;8168;49.036;7.690;2023-08-31T15:08:39;3.50;;;1.60;;
16127;SDS011;8168;49.036;7.690;2023-08-31T15:11:13;3.67;;;1.80;;
16127;SDS011;8168;49.036;7.690;2023-08-31T15:13:44;5.30;;;2.37;;
16127;SDS011;8168;49.036;7.690;2023-08-31T15:16:15;2.97;;;1.40;;
16127;SDS011;8168;49.036;7.690;2023-08-31T15:18:45;3.10;;;1.60;;
16127;SDS011;8168;49.036;7.690;2023-08-31T15:21:17;1.70;;;1.47;;
16127;SDS011;8168;49.036;7.690;2023-08-31T15:23:49;7.93;;;1.80;;
16127;SDS011;8168;49.036;7.690;2023-08-31T15:26:20;2.70;;;1.50;;
16127;SDS011;8168;49.036;7.690;2023-08-31T15:28:51;3.90;;;1.60;;
16127;SDS011;8168;49.036;7.690;2023-08-31T15:31:22;2.80;;;1.70;;
16127;SDS011;8168;49.036;7.690;2023-08-31T15:33:52;2.27;;;1.70;;
16127;SDS011;8168;49.036;7.690;2023-08-31T15:36:23;2.80;;;1.87;;
16127;SDS011;8168;49.036;7.690;2023-08-31T15:38:54;3.07;;;1.83;;